sensor_id;sensor_type;location;lat;lon;timestamp;temperature;humidity
11848;DHT22;5983;49.966;8.052;2024-02-21T00:00:54;9.30;99.90
11848;DHT22;5983;49.966;8.052;2024-02-21T00:03:21;9.30;99.90
11848;DHT22;5983;49.966;8.052;2024-02-21T00:05:48;9.30;99.90
11848;DHT22;5983;49.966;8.052;2024-02-21T00:08:15;9.20;99.90
11848;DHT22;5983;49.966;8.052;2024-02-21T00:10:42;9.20;99.90
11848;DHT22;5983;49.966;8.052;2024-02-21T00:13:10;9.20;99.90
11848;DHT22;5983;49.966;8.052;2024-02-21T00:15:37;9.20;99.90
11848;DHT22;5983;49.966;8.052;2024-02-21T00:18:04;9.30;99.90
11848;DHT22;5983;49.966;8.052;2024-02-21T00:20:31;9.20;99.90
11848;DHT22;5983;49.966;8.052;2024-02-21T00:22:57;9.20;99.90
11848;DHT22;5983;49.966;8.052;2024-02-21T00:25:24;9.20;99.90
11848;DHT22;5983;49.966;8.052;2024-02-21T00:27:51;9.20;99.90
11848;DHT22;5983;49.966;8.052;2024-02-21T00:30:20;9.20;99.90
11848;DHT22;5983;49.966;8.052;2024-02-21T00:32:47;9.10;99.90
11848;DHT22;5983;49.966;8.052;2024-02-21T00:35:14;9.20;99.90
11848;DHT22;5983;49.966;8.052;2024-02-21T00:37:41;9.10;99.90
11848;DHT22;5983;49.966;8.052;2024-02-21T00:40:08;9.10;99.90
11848;DHT22;5983;49.966;8.052;2024-02-21T00:42:35;9.10;99.90
11848;DHT22;5983;49.966;8.052;2024-02-21T00:45:02;9.10;99.90
11848;DHT22;5983;49.966;8.052;2024-02-21T00:47:31;9.10;99.90
11848;DHT22;5983;49.966;8.052;2024-02-21T00:49:58;9.00;99.90
11848;DHT22;5983;49.966;8.052;2024-02-21T00:52:24;9.00;99.90
11848;DHT22;5983;49.966;8.052;2024-02-21T00:54:51;9.00;99.90
11848;DHT22;5983;49.966;8.052;2024-02-21T00:57:18;9.10;99.90
11848;DHT22;5983;49.966;8.052;2024-02-21T00:59:45;9.10;99.90
11848;DHT22;5983;49.966;8.052;2024-02-21T01:02:11;9.00;99.90
11848;DHT22;5983;49.966;8.052;2024-02-21T01:04:40;9.00;99.90
11848;DHT22;5983;49.966;8.052;2024-02-21T01:07:06;9.00;99.90
11848;DHT22;5983;49.966;8.052;2024-02-21T01:09:33;9.00;99.90
11848;DHT22;5983;49.966;8.052;2024-02-21T01:12:00;9.00;99.90
11848;DHT22;5983;49.966;8.052;2024-02-21T01:14:27;9.00;99.90
11848;DHT22;5983;49.966;8.052;2024-02-21T01:16:53;9.00;99.90
11848;DHT22;5983;49.966;8.052;2024-02-21T01:19:20;9.00;99.90
11848;DHT22;5983;49.966;8.052;2024-02-21T01:21:48;9.10;99.90
11848;DHT22;5983;49.966;8.052;2024-02-21T01:24:15;9.10;99.90
11848;DHT22;5983;49.966;8.052;2024-02-21T01:26:42;9.10;99.90
11848;DHT22;5983;49.966;8.052;2024-02-21T01:29:09;9.10;99.90
11848;DHT22;5983;49.966;8.052;2024-02-21T01:31:35;9.10;99.90
11848;DHT22;5983;49.966;8.052;2024-02-21T01:34:02;9.10;99.90
11848;DHT22;5983;49.966;8.052;2024-02-21T01:36:29;9.10;99.90
11848;DHT22;5983;49.966;8.052;2024-02-21T01:38:57;9.10;99.90
11848;DHT22;5983;49.966;8.052;2024-02-21T01:41:24;9.10;99.90
11848;DHT22;5983;49.966;8.052;2024-02-21T01:43:51;9.00;99.90
11848;DHT22;5983;49.966;8.052;2024-02-21T01:46:18;9.00;99.90
11848;DHT22;5983;49.966;8.052;2024-02-21T01:48:45;9.00;99.90
11848;DHT22;5983;49.966;8.052;2024-02-21T01:51:12;9.00;99.90
11848;DHT22;5983;49.966;8.052;2024-02-21T01:53:42;9.00;99.90
11848;DHT22;5983;49.966;8.052;2024-02-21T01:56:11;8.90;99.90
11848;DHT22;5983;49.966;8.052;2024-02-21T01:58:39;8.90;99.90
11848;DHT22;5983;49.966;8.052;2024-02-21T02:01:08;8.90;99.90
11848;DHT22;5983;49.966;8.052;2024-02-21T02:03:36;8.90;99.90
11848;DHT22;5983;49.966;8.052;2024-02-21T02:06:04;8.90;99.90
11848;DHT22;5983;49.966;8.052;2024-02-21T02:08:32;8.80;99.90
11848;DHT22;5983;49.966;8.052;2024-02-21T02:10:59;8.90;99.90
11848;DHT22;5983;49.966;8.052;2024-02-21T02:13:28;8.80;99.90
11848;DHT22;5983;49.966;8.052;2024-02-21T02:15:54;8.80;99.90
11848;DHT22;5983;49.966;8.052;2024-02-21T02:18:21;8.80;99.90
11848;DHT22;5983;49.966;8.052;2024-02-21T02:20:48;8.80;99.90
11848;DHT22;5983;49.966;8.052;2024-02-21T02:23:21;8.80;99.90
11848;DHT22;5983;49.966;8.052;2024-02-21T02:25:50;8.80;99.90
11848;DHT22;5983;49.966;8.052;2024-02-21T02:28:17;8.80;99.90
11848;DHT22;5983;49.966;8.052;2024-02-21T02:30:45;8.80;99.90
11848;DHT22;5983;49.966;8.052;2024-02-21T02:33:12;8.80;99.90
11848;DHT22;5983;49.966;8.052;2024-02-21T02:35:39;8.80;99.90
11848;DHT22;5983;49.966;8.052;2024-02-21T02:38:06;8.80;99.90
11848;DHT22;5983;49.966;8.052;2024-02-21T02:40:34;8.80;99.90
11848;DHT22;5983;49.966;8.052;2024-02-21T02:43:01;8.80;99.90
11848;DHT22;5983;49.966;8.052;2024-02-21T02:45:28;8.80;99.90
11848;DHT22;5983;49.966;8.052;2024-02-21T02:47:55;8.80;99.90
11848;DHT22;5983;49.966;8.052;2024-02-21T02:50:22;8.80;99.90
11848;DHT22;5983;49.966;8.052;2024-02-21T02:52:49;8.70;99.90
11848;DHT22;5983;49.966;8.052;2024-02-21T02:55:16;8.70;99.90
11848;DHT22;5983;49.966;8.052;2024-02-21T02:57:44;8.70;99.90
11848;DHT22;5983;49.966;8.052;2024-02-21T03:00:12;8.80;99.90
11848;DHT22;5983;49.966;8.052;2024-02-21T03:02:41;8.80;99.90
11848;DHT22;5983;49.966;8.052;2024-02-21T03:05:12;8.80;99.90
11848;DHT22;5983;49.966;8.052;2024-02-21T03:07:40;8.80;99.90
11848;DHT22;5983;49.966;8.052;2024-02-21T03:10:08;8.80;99.90
11848;DHT22;5983;49.966;8.052;2024-02-21T03:12:35;8.80;99.90
11848;DHT22;5983;49.966;8.052;2024-02-21T03:15:04;8.80;99.90
11848;DHT22;5983;49.966;8.052;2024-02-21T03:17:31;8.80;99.90
11848;DHT22;5983;49.966;8.052;2024-02-21T03:19:59;8.80;99.90
11848;DHT22;5983;49.966;8.052;2024-02-21T03:22:26;8.80;99.90
11848;DHT22;5983;49.966;8.052;2024-02-21T03:24:53;8.80;99.90
11848;DHT22;5983;49.966;8.052;2024-02-21T03:27:20;8.80;99.90
11848;DHT22;5983;49.966;8.052;2024-02-21T03:29:47;8.80;99.90
11848;DHT22;5983;49.966;8.052;2024-02-21T03:32:15;8.80;99.90
11848;DHT22;5983;49.966;8.052;2024-02-21T03:34:42;8.70;99.90
11848;DHT22;5983;49.966;8.052;2024-02-21T03:37:09;8.70;99.90
11848;DHT22;5983;49.966;8.052;2024-02-21T03:39:35;8.60;99.90
11848;DHT22;5983;49.966;8.052;2024-02-21T03:42:03;8.60;99.90
11848;DHT22;5983;49.966;8.052;2024-02-21T03:44:30;8.50;99.90
11848;DHT22;5983;49.966;8.052;2024-02-21T03:46:58;8.60;99.90
11848;DHT22;5983;49.966;8.052;2024-02-21T03:49:26;8.60;99.90
11848;DHT22;5983;49.966;8.052;2024-02-21T03:51:54;8.50;99.90
11848;DHT22;5983;49.966;8.052;2024-02-21T03:54:20;8.50;99.90
11848;DHT22;5983;49.966;8.052;2024-02-21T03:56:47;8.50;99.90
11848;DHT22;5983;49.966;8.052;2024-02-21T03:59:14;8.50;99.90
11848;DHT22;5983;49.966;8.052;2024-02-21T04:01:42;8.50;99.90
11848;DHT22;5983;49.966;8.052;2024-02-21T04:04:09;8.50;99.90
11848;DHT22;5983;49.966;8.052;2024-02-21T04:06:38;8.50;99.90
11848;DHT22;5983;49.966;8.052;2024-02-21T04:09:12;8.40;99.90
11848;DHT22;5983;49.966;8.052;2024-02-21T04:11:39;8.40;99.90
11848;DHT22;5983;49.966;8.052;2024-02-21T04:14:06;8.40;99.90
11848;DHT22;5983;49.966;8.052;2024-02-21T04:16:33;8.30;99.90
11848;DHT22;5983;49.966;8.052;2024-02-21T04:19:00;8.30;99.90
11848;DHT22;5983;49.966;8.052;2024-02-21T04:21:27;8.30;99.90
11848;DHT22;5983;49.966;8.052;2024-02-21T04:23:55;8.20;99.90
11848;DHT22;5983;49.966;8.052;2024-02-21T04:26:22;8.20;99.90
11848;DHT22;5983;49.966;8.052;2024-02-21T04:28:49;8.20;99.90
11848;DHT22;5983;49.966;8.052;2024-02-21T04:31:16;8.20;99.90
11848;DHT22;5983;49.966;8.052;2024-02-21T04:33:42;8.20;99.90
11848;DHT22;5983;49.966;8.052;2024-02-21T04:36:09;8.20;99.90
11848;DHT22;5983;49.966;8.052;2024-02-21T04:38:36;8.20;99.90
11848;DHT22;5983;49.966;8.052;2024-02-21T04:41:07;8.10;99.90
11848;DHT22;5983;49.966;8.052;2024-02-21T04:43:34;8.10;99.90
11848;DHT22;5983;49.966;8.052;2024-02-21T04:46:01;8.10;99.90
11848;DHT22;5983;49.966;8.052;2024-02-21T04:48:28;8.10;99.90
11848;DHT22;5983;49.966;8.052;2024-02-21T04:50:55;8.10;99.90
11848;DHT22;5983;49.966;8.052;2024-02-21T04:53:21;8.10;99.90
11848;DHT22;5983;49.966;8.052;2024-02-21T04:55:48;8.10;99.90
11848;DHT22;5983;49.966;8.052;2024-02-21T04:58:16;8.00;99.90
11848;DHT22;5983;49.966;8.052;2024-02-21T05:00:43;7.90;99.90
11848;DHT22;5983;49.966;8.052;2024-02-21T05:03:10;7.90;99.90
11848;DHT22;5983;49.966;8.052;2024-02-21T05:05:37;7.90;99.90
11848;DHT22;5983;49.966;8.052;2024-02-21T05:08:03;7.80;99.90
11848;DHT22;5983;49.966;8.052;2024-02-21T05:10:30;7.80;99.90
11848;DHT22;5983;49.966;8.052;2024-02-21T05:12:57;7.80;99.90
11848;DHT22;5983;49.966;8.052;2024-02-21T05:15:26;7.80;99.90
11848;DHT22;5983;49.966;8.052;2024-02-21T05:17:52;7.80;99.90
11848;DHT22;5983;49.966;8.052;2024-02-21T05:20:19;7.80;99.90
11848;DHT22;5983;49.966;8.052;2024-02-21T05:23:11;7.80;99.90
11848;DHT22;5983;49.966;8.052;2024-02-21T05:25:39;7.80;99.90
11848;DHT22;5983;49.966;8.052;2024-02-21T05:28:06;7.80;99.90
11848;DHT22;5983;49.966;8.052;2024-02-21T05:30:34;7.80;99.90
11848;DHT22;5983;49.966;8.052;2024-02-21T05:33:03;7.80;99.90
11848;DHT22;5983;49.966;8.052;2024-02-21T05:35:31;7.80;99.90
11848;DHT22;5983;49.966;8.052;2024-02-21T05:37:59;7.80;99.90
11848;DHT22;5983;49.966;8.052;2024-02-21T05:40:26;7.80;99.90
11848;DHT22;5983;49.966;8.052;2024-02-21T05:42:53;7.70;99.90
11848;DHT22;5983;49.966;8.052;2024-02-21T05:45:20;7.70;99.90
11848;DHT22;5983;49.966;8.052;2024-02-21T05:47:48;7.70;99.90
11848;DHT22;5983;49.966;8.052;2024-02-21T05:50:15;7.60;99.90
11848;DHT22;5983;49.966;8.052;2024-02-21T05:52:42;7.60;99.90
11848;DHT22;5983;49.966;8.052;2024-02-21T05:55:09;7.50;99.90
11848;DHT22;5983;49.966;8.052;2024-02-21T05:57:36;7.50;99.90
11848;DHT22;5983;49.966;8.052;2024-02-21T06:00:04;7.40;99.90
11848;DHT22;5983;49.966;8.052;2024-02-21T06:02:32;7.40;99.90
11848;DHT22;5983;49.966;8.052;2024-02-21T06:08:20;7.40;99.90
11848;DHT22;5983;49.966;8.052;2024-02-21T06:10:46;7.50;99.90
11848;DHT22;5983;49.966;8.052;2024-02-21T06:13:13;7.40;99.90
11848;DHT22;5983;49.966;8.052;2024-02-21T06:15:40;7.40;99.90
11848;DHT22;5983;49.966;8.052;2024-02-21T06:18:07;7.40;99.90
11848;DHT22;5983;49.966;8.052;2024-02-21T06:20:34;7.40;99.90
11848;DHT22;5983;49.966;8.052;2024-02-21T06:23:01;7.40;99.90
11848;DHT22;5983;49.966;8.052;2024-02-21T06:25:29;7.40;99.90
11848;DHT22;5983;49.966;8.052;2024-02-21T06:27:56;7.40;99.90
11848;DHT22;5983;49.966;8.052;2024-02-21T06:30:23;7.40;99.90
11848;DHT22;5983;49.966;8.052;2024-02-21T06:32:50;7.50;99.90
11848;DHT22;5983;49.966;8.052;2024-02-21T06:35:16;7.50;99.90
11848;DHT22;5983;49.966;8.052;2024-02-21T06:37:43;7.50;99.90
11848;DHT22;5983;49.966;8.052;2024-02-21T06:40:12;7.40;99.90
11848;DHT22;5983;49.966;8.052;2024-02-21T06:42:40;7.50;99.90
11848;DHT22;5983;49.966;8.052;2024-02-21T06:45:07;7.50;99.90
11848;DHT22;5983;49.966;8.052;2024-02-21T06:47:34;7.50;99.90
11848;DHT22;5983;49.966;8.052;2024-02-21T06:50:01;7.60;99.90
11848;DHT22;5983;49.966;8.052;2024-02-21T06:52:28;7.60;99.90
11848;DHT22;5983;49.966;8.052;2024-02-21T06:54:56;7.70;99.90
11848;DHT22;5983;49.966;8.052;2024-02-21T06:57:23;7.70;99.90
11848;DHT22;5983;49.966;8.052;2024-02-21T06:59:51;7.70;99.90
11848;DHT22;5983;49.966;8.052;2024-02-21T07:02:18;7.80;99.90
11848;DHT22;5983;49.966;8.052;2024-02-21T07:04:44;7.80;99.90
11848;DHT22;5983;49.966;8.052;2024-02-21T07:07:11;7.80;99.90
11848;DHT22;5983;49.966;8.052;2024-02-21T07:09:38;7.90;99.90
11848;DHT22;5983;49.966;8.052;2024-02-21T07:12:05;7.90;99.90
11848;DHT22;5983;49.966;8.052;2024-02-21T07:14:32;8.00;99.90
11848;DHT22;5983;49.966;8.052;2024-02-21T07:17:00;8.00;99.90
11848;DHT22;5983;49.966;8.052;2024-02-21T07:19:27;8.10;99.90
11848;DHT22;5983;49.966;8.052;2024-02-21T07:21:54;8.10;99.90
11848;DHT22;5983;49.966;8.052;2024-02-21T07:24:22;8.30;99.90
11848;DHT22;5983;49.966;8.052;2024-02-21T07:26:48;8.30;99.90
11848;DHT22;5983;49.966;8.052;2024-02-21T07:29:15;8.40;99.90
11848;DHT22;5983;49.966;8.052;2024-02-21T07:31:42;8.40;99.90
11848;DHT22;5983;49.966;8.052;2024-02-21T07:34:11;8.50;99.90
11848;DHT22;5983;49.966;8.052;2024-02-21T07:36:38;8.60;99.90
11848;DHT22;5983;49.966;8.052;2024-02-21T07:39:04;8.60;99.90
11848;DHT22;5983;49.966;8.052;2024-02-21T07:41:31;8.70;99.90
11848;DHT22;5983;49.966;8.052;2024-02-21T07:43:59;8.70;99.90
11848;DHT22;5983;49.966;8.052;2024-02-21T07:46:27;8.80;99.90
11848;DHT22;5983;49.966;8.052;2024-02-21T07:48:53;8.90;99.90
11848;DHT22;5983;49.966;8.052;2024-02-21T07:51:22;8.90;99.90
11848;DHT22;5983;49.966;8.052;2024-02-21T07:53:48;9.10;99.90
11848;DHT22;5983;49.966;8.052;2024-02-21T07:56:15;9.30;99.90
11848;DHT22;5983;49.966;8.052;2024-02-21T07:58:42;9.50;99.90
11848;DHT22;5983;49.966;8.052;2024-02-21T08:01:09;9.60;99.90
11848;DHT22;5983;49.966;8.052;2024-02-21T08:03:36;9.60;99.90
11848;DHT22;5983;49.966;8.052;2024-02-21T08:06:03;9.60;99.90
11848;DHT22;5983;49.966;8.052;2024-02-21T08:08:32;9.50;99.90
11848;DHT22;5983;49.966;8.052;2024-02-21T08:10:59;9.50;99.90
11848;DHT22;5983;49.966;8.052;2024-02-21T08:13:25;9.50;99.90
11848;DHT22;5983;49.966;8.052;2024-02-21T08:15:54;9.50;99.90
11848;DHT22;5983;49.966;8.052;2024-02-21T08:18:20;9.60;99.90
11848;DHT22;5983;49.966;8.052;2024-02-21T08:20:47;9.60;99.90
11848;DHT22;5983;49.966;8.052;2024-02-21T08:23:15;9.70;99.90
11848;DHT22;5983;49.966;8.052;2024-02-21T08:25:44;9.80;99.90
11848;DHT22;5983;49.966;8.052;2024-02-21T08:28:11;9.90;99.90
11848;DHT22;5983;49.966;8.052;2024-02-21T08:30:38;10.10;99.90
11848;DHT22;5983;49.966;8.052;2024-02-21T08:33:05;10.20;99.90
11848;DHT22;5983;49.966;8.052;2024-02-21T08:35:32;10.30;99.90
11848;DHT22;5983;49.966;8.052;2024-02-21T08:37:59;10.50;99.90
11848;DHT22;5983;49.966;8.052;2024-02-21T08:40:25;10.70;99.90
11848;DHT22;5983;49.966;8.052;2024-02-21T08:42:53;11.00;99.90
11848;DHT22;5983;49.966;8.052;2024-02-21T08:45:20;11.20;99.90
11848;DHT22;5983;49.966;8.052;2024-02-21T08:47:47;11.70;99.90
11848;DHT22;5983;49.966;8.052;2024-02-21T08:50:14;12.10;99.90
11848;DHT22;5983;49.966;8.052;2024-02-21T08:52:40;12.60;99.90
11848;DHT22;5983;49.966;8.052;2024-02-21T08:55:08;13.20;99.90
11848;DHT22;5983;49.966;8.052;2024-02-21T08:57:35;13.90;99.90
11848;DHT22;5983;49.966;8.052;2024-02-21T09:00:05;14.70;99.90
11848;DHT22;5983;49.966;8.052;2024-02-21T09:02:35;15.40;99.90
11848;DHT22;5983;49.966;8.052;2024-02-21T09:05:04;16.00;99.90
11848;DHT22;5983;49.966;8.052;2024-02-21T09:07:31;16.20;99.90
11848;DHT22;5983;49.966;8.052;2024-02-21T09:09:58;16.30;99.90
11848;DHT22;5983;49.966;8.052;2024-02-21T09:12:26;16.50;99.90
11848;DHT22;5983;49.966;8.052;2024-02-21T09:14:53;16.70;99.90
11848;DHT22;5983;49.966;8.052;2024-02-21T09:17:21;16.70;99.90
11848;DHT22;5983;49.966;8.052;2024-02-21T09:19:48;16.50;99.90
11848;DHT22;5983;49.966;8.052;2024-02-21T09:22:15;16.30;99.90
11848;DHT22;5983;49.966;8.052;2024-02-21T09:24:41;16.40;99.90
11848;DHT22;5983;49.966;8.052;2024-02-21T09:27:08;16.40;99.90
11848;DHT22;5983;49.966;8.052;2024-02-21T09:29:35;16.70;99.90
11848;DHT22;5983;49.966;8.052;2024-02-21T09:32:02;17.10;99.90
11848;DHT22;5983;49.966;8.052;2024-02-21T09:34:30;17.20;99.90
11848;DHT22;5983;49.966;8.052;2024-02-21T09:36:57;17.40;99.90
11848;DHT22;5983;49.966;8.052;2024-02-21T09:39:24;17.70;99.30
11848;DHT22;5983;49.966;8.052;2024-02-21T09:41:53;17.80;98.50
11848;DHT22;5983;49.966;8.052;2024-02-21T09:44:24;17.90;98.20
11848;DHT22;5983;49.966;8.052;2024-02-21T09:46:57;17.80;96.50
11848;DHT22;5983;49.966;8.052;2024-02-21T09:49:31;17.50;96.80
11848;DHT22;5983;49.966;8.052;2024-02-21T09:52:00;17.80;97.20
11848;DHT22;5983;49.966;8.052;2024-02-21T09:54:28;18.10;96.50
11848;DHT22;5983;49.966;8.052;2024-02-21T09:56:56;18.10;95.30
11848;DHT22;5983;49.966;8.052;2024-02-21T09:59:23;18.20;95.20
11848;DHT22;5983;49.966;8.052;2024-02-21T10:01:51;18.50;94.20
11848;DHT22;5983;49.966;8.052;2024-02-21T10:04:19;18.10;94.30
11848;DHT22;5983;49.966;8.052;2024-02-21T10:06:47;17.90;94.30
11848;DHT22;5983;49.966;8.052;2024-02-21T10:09:23;17.70;94.50
11848;DHT22;5983;49.966;8.052;2024-02-21T10:11:53;17.40;94.60
11848;DHT22;5983;49.966;8.052;2024-02-21T10:14:20;17.00;95.10
11848;DHT22;5983;49.966;8.052;2024-02-21T10:16:47;16.90;95.70
11848;DHT22;5983;49.966;8.052;2024-02-21T10:19:18;16.70;95.20
11848;DHT22;5983;49.966;8.052;2024-02-21T10:22:00;16.40;95.70
11848;DHT22;5983;49.966;8.052;2024-02-21T10:24:28;16.10;96.60
11848;DHT22;5983;49.966;8.052;2024-02-21T10:26:59;16.00;97.20
11848;DHT22;5983;49.966;8.052;2024-02-21T10:29:26;15.90;97.20
11848;DHT22;5983;49.966;8.052;2024-02-21T10:32:02;15.90;97.60
11848;DHT22;5983;49.966;8.052;2024-02-21T10:34:30;16.00;97.70
11848;DHT22;5983;49.966;8.052;2024-02-21T10:37:00;15.90;97.40
11848;DHT22;5983;49.966;8.052;2024-02-21T10:39:28;15.60;97.50
11848;DHT22;5983;49.966;8.052;2024-02-21T10:41:56;15.50;97.90
11848;DHT22;5983;49.966;8.052;2024-02-21T10:44:26;15.40;97.90
11848;DHT22;5983;49.966;8.052;2024-02-21T10:46:54;15.40;97.90
11848;DHT22;5983;49.966;8.052;2024-02-21T10:49:22;15.40;98.50
11848;DHT22;5983;49.966;8.052;2024-02-21T10:51:52;15.40;98.70
11848;DHT22;5983;49.966;8.052;2024-02-21T10:54:28;15.40;98.60
11848;DHT22;5983;49.966;8.052;2024-02-21T10:57:00;15.30;97.90
11848;DHT22;5983;49.966;8.052;2024-02-21T10:59:30;14.90;98.60
11848;DHT22;5983;49.966;8.052;2024-02-21T11:01:58;14.50;99.30
11848;DHT22;5983;49.966;8.052;2024-02-21T11:04:25;14.20;99.90
11848;DHT22;5983;49.966;8.052;2024-02-21T11:06:52;13.90;99.90
11848;DHT22;5983;49.966;8.052;2024-02-21T11:09:29;13.70;99.90
11848;DHT22;5983;49.966;8.052;2024-02-21T11:11:58;13.50;99.90
11848;DHT22;5983;49.966;8.052;2024-02-21T11:14:26;13.50;99.90
11848;DHT22;5983;49.966;8.052;2024-02-21T11:16:53;13.40;99.90
11848;DHT22;5983;49.966;8.052;2024-02-21T11:19:22;13.50;99.90
11848;DHT22;5983;49.966;8.052;2024-02-21T11:21:51;13.50;99.90
11848;DHT22;5983;49.966;8.052;2024-02-21T11:24:25;13.50;99.90
11848;DHT22;5983;49.966;8.052;2024-02-21T11:26:55;13.40;99.90
11848;DHT22;5983;49.966;8.052;2024-02-21T11:29:23;13.40;99.90
11848;DHT22;5983;49.966;8.052;2024-02-21T11:31:51;13.20;99.90
11848;DHT22;5983;49.966;8.052;2024-02-21T11:34:18;13.10;99.90
11848;DHT22;5983;49.966;8.052;2024-02-21T11:36:48;13.10;99.90
11848;DHT22;5983;49.966;8.052;2024-02-21T11:39:19;12.90;99.90
11848;DHT22;5983;49.966;8.052;2024-02-21T11:41:47;12.80;99.90
11848;DHT22;5983;49.966;8.052;2024-02-21T11:44:15;12.60;99.90
11848;DHT22;5983;49.966;8.052;2024-02-21T11:46:42;12.50;99.90
11848;DHT22;5983;49.966;8.052;2024-02-21T11:49:09;12.50;99.90
11848;DHT22;5983;49.966;8.052;2024-02-21T11:51:36;12.60;99.90
11848;DHT22;5983;49.966;8.052;2024-02-21T11:54:03;12.50;99.90
11848;DHT22;5983;49.966;8.052;2024-02-21T11:56:30;12.60;99.90
11848;DHT22;5983;49.966;8.052;2024-02-21T11:58:58;12.50;99.90
11848;DHT22;5983;49.966;8.052;2024-02-21T12:01:27;12.60;99.90
11848;DHT22;5983;49.966;8.052;2024-02-21T12:08:11;12.40;99.90
11848;DHT22;5983;49.966;8.052;2024-02-21T12:09:43;12.40;99.90
11848;DHT22;5983;49.966;8.052;2024-02-21T12:15:47;12.30;99.90
11848;DHT22;5983;49.966;8.052;2024-02-21T12:18:31;12.40;99.90
11848;DHT22;5983;49.966;8.052;2024-02-21T12:21:31;12.50;99.90
11848;DHT22;5983;49.966;8.052;2024-02-21T12:27:01;12.50;99.90
11848;DHT22;5983;49.966;8.052;2024-02-21T12:29:54;12.40;99.90
11848;DHT22;5983;49.966;8.052;2024-02-21T12:32:46;12.20;99.90
11848;DHT22;5983;49.966;8.052;2024-02-21T12:35:21;12.10;99.90
11848;DHT22;5983;49.966;8.052;2024-02-21T12:38:08;12.20;99.90
11848;DHT22;5983;49.966;8.052;2024-02-21T12:40:51;12.30;99.90
11848;DHT22;5983;49.966;8.052;2024-02-21T12:43:41;12.20;99.90
11848;DHT22;5983;49.966;8.052;2024-02-21T12:49:12;12.10;99.90
11848;DHT22;5983;49.966;8.052;2024-02-21T12:54:48;12.30;99.90
11848;DHT22;5983;49.966;8.052;2024-02-21T12:57:33;12.20;99.90
11848;DHT22;5983;49.966;8.052;2024-02-21T13:00:42;12.20;99.90
11848;DHT22;5983;49.966;8.052;2024-02-21T13:03:28;12.20;99.90
11848;DHT22;5983;49.966;8.052;2024-02-21T13:09:39;12.30;99.90
11848;DHT22;5983;49.966;8.052;2024-02-21T13:17:36;12.20;99.90
11848;DHT22;5983;49.966;8.052;2024-02-21T13:18:51;12.20;99.90
11848;DHT22;5983;49.966;8.052;2024-02-21T13:21:38;12.30;99.90
11848;DHT22;5983;49.966;8.052;2024-02-21T13:24:26;12.30;99.90
11848;DHT22;5983;49.966;8.052;2024-02-21T13:27:17;12.30;99.90
11848;DHT22;5983;49.966;8.052;2024-02-21T13:30:08;12.30;99.90
11848;DHT22;5983;49.966;8.052;2024-02-21T13:32:57;12.30;99.90
11848;DHT22;5983;49.966;8.052;2024-02-21T13:35:32;12.30;99.90
11848;DHT22;5983;49.966;8.052;2024-02-21T13:38:03;12.30;99.90
11848;DHT22;5983;49.966;8.052;2024-02-21T13:41:18;12.20;99.90
11848;DHT22;5983;49.966;8.052;2024-02-21T13:44:45;12.20;99.90
11848;DHT22;5983;49.966;8.052;2024-02-21T13:47:31;12.10;99.90
11848;DHT22;5983;49.966;8.052;2024-02-21T13:50:49;12.10;99.90
11848;DHT22;5983;49.966;8.052;2024-02-21T13:53:36;12.00;99.90
11848;DHT22;5983;49.966;8.052;2024-02-21T14:12:55;11.80;99.90
11848;DHT22;5983;49.966;8.052;2024-02-21T14:15:33;11.80;99.90
11848;DHT22;5983;49.966;8.052;2024-02-21T14:18:31;11.80;99.90
11848;DHT22;5983;49.966;8.052;2024-02-21T14:24:49;11.90;99.90
11848;DHT22;5983;49.966;8.052;2024-02-21T14:27:54;11.90;99.90
11848;DHT22;5983;49.966;8.052;2024-02-21T14:30:48;12.00;99.90
11848;DHT22;5983;49.966;8.052;2024-02-21T14:34:00;12.10;99.90
11848;DHT22;5983;49.966;8.052;2024-02-21T14:39:44;12.20;99.90
11848;DHT22;5983;49.966;8.052;2024-02-21T14:42:44;12.20;99.90
11848;DHT22;5983;49.966;8.052;2024-02-21T14:45:33;12.10;99.90
11848;DHT22;5983;49.966;8.052;2024-02-21T14:51:35;12.10;99.90
11848;DHT22;5983;49.966;8.052;2024-02-21T14:57:44;12.00;99.90
11848;DHT22;5983;49.966;8.052;2024-02-21T15:00:42;11.90;99.90
11848;DHT22;5983;49.966;8.052;2024-02-21T15:04:00;11.80;99.90
11848;DHT22;5983;49.966;8.052;2024-02-21T15:07:21;11.70;99.90
11848;DHT22;5983;49.966;8.052;2024-02-21T15:10:20;11.70;99.90
11848;DHT22;5983;49.966;8.052;2024-02-21T15:16:44;11.60;99.90
11848;DHT22;5983;49.966;8.052;2024-02-21T15:19:26;11.60;99.90
11848;DHT22;5983;49.966;8.052;2024-02-21T15:22:29;11.60;99.90
11848;DHT22;5983;49.966;8.052;2024-02-21T15:25:33;11.50;99.90
11848;DHT22;5983;49.966;8.052;2024-02-21T15:28:38;11.50;99.90
11848;DHT22;5983;49.966;8.052;2024-02-21T15:37:46;11.40;99.90
11848;DHT22;5983;49.966;8.052;2024-02-21T15:41:00;11.40;99.90
11848;DHT22;5983;49.966;8.052;2024-02-21T15:44:33;11.30;99.90
11848;DHT22;5983;49.966;8.052;2024-02-21T15:47:23;11.30;99.90
11848;DHT22;5983;49.966;8.052;2024-02-21T15:53:27;11.30;99.90
11848;DHT22;5983;49.966;8.052;2024-02-21T16:26:28;11.00;99.90
11848;DHT22;5983;49.966;8.052;2024-02-21T16:29:08;11.00;99.90
11848;DHT22;5983;49.966;8.052;2024-02-21T16:32:17;10.90;99.90
11848;DHT22;5983;49.966;8.052;2024-02-21T16:36:07;10.90;99.90
11848;DHT22;5983;49.966;8.052;2024-02-21T16:39:43;10.90;99.90
11848;DHT22;5983;49.966;8.052;2024-02-21T16:56:50;10.70;99.90
11848;DHT22;5983;49.966;8.052;2024-02-21T17:20:26;10.50;99.90
11848;DHT22;5983;49.966;8.052;2024-02-21T17:22:53;10.40;99.90
11848;DHT22;5983;49.966;8.052;2024-02-21T17:25:20;10.40;99.90
11848;DHT22;5983;49.966;8.052;2024-02-21T17:27:47;10.40;99.90
11848;DHT22;5983;49.966;8.052;2024-02-21T17:30:15;10.30;99.90
11848;DHT22;5983;49.966;8.052;2024-02-21T17:32:43;10.30;99.90
11848;DHT22;5983;49.966;8.052;2024-02-21T17:35:10;10.20;99.90
11848;DHT22;5983;49.966;8.052;2024-02-21T17:37:38;10.20;99.90
11848;DHT22;5983;49.966;8.052;2024-02-21T17:40:06;10.20;99.90
11848;DHT22;5983;49.966;8.052;2024-02-21T17:42:33;10.10;99.90
11848;DHT22;5983;49.966;8.052;2024-02-21T17:45:00;10.10;99.90
11848;DHT22;5983;49.966;8.052;2024-02-21T17:47:28;10.10;99.90
11848;DHT22;5983;49.966;8.052;2024-02-21T17:49:57;10.10;99.90
11848;DHT22;5983;49.966;8.052;2024-02-21T17:52:23;10.10;99.90
11848;DHT22;5983;49.966;8.052;2024-02-21T17:54:52;10.00;99.90
11848;DHT22;5983;49.966;8.052;2024-02-21T17:57:18;10.00;99.90
11848;DHT22;5983;49.966;8.052;2024-02-21T17:59:45;10.00;99.90
11848;DHT22;5983;49.966;8.052;2024-02-21T18:02:12;10.00;99.90
11848;DHT22;5983;49.966;8.052;2024-02-21T18:04:44;10.00;99.90
11848;DHT22;5983;49.966;8.052;2024-02-21T18:07:14;10.00;99.90
11848;DHT22;5983;49.966;8.052;2024-02-21T18:09:41;10.00;99.90
11848;DHT22;5983;49.966;8.052;2024-02-21T18:12:08;10.00;99.90
11848;DHT22;5983;49.966;8.052;2024-02-21T18:14:34;9.90;99.90
11848;DHT22;5983;49.966;8.052;2024-02-21T18:17:01;10.00;99.90
11848;DHT22;5983;49.966;8.052;2024-02-21T18:19:32;9.90;99.90
11848;DHT22;5983;49.966;8.052;2024-02-21T18:21:59;9.90;99.90
11848;DHT22;5983;49.966;8.052;2024-02-21T18:24:27;9.90;99.90
11848;DHT22;5983;49.966;8.052;2024-02-21T18:26:55;9.90;99.90
11848;DHT22;5983;49.966;8.052;2024-02-21T18:29:22;9.80;99.90
11848;DHT22;5983;49.966;8.052;2024-02-21T18:31:51;9.80;99.90
11848;DHT22;5983;49.966;8.052;2024-02-21T18:34:17;9.70;99.90
11848;DHT22;5983;49.966;8.052;2024-02-21T18:36:44;9.70;99.90
11848;DHT22;5983;49.966;8.052;2024-02-21T18:39:11;9.70;99.90